createdAt,value
2022-11-13T00:02:12.138Z,101494.19
2022-11-13T00:07:34.932Z,101484.16
2022-11-13T00:12:56.231Z,101475.16
2022-11-13T00:18:17.572Z,101468.03
2022-11-13T00:23:40.645Z,101467.88
2022-11-13T00:29:03.497Z,101466.13
2022-11-13T00:34:46.450Z,101451.81
2022-11-13T00:40:09.272Z,101452.78
2022-11-13T00:45:30.592Z,101443.97
2022-11-13T00:50:52.214Z,101448.25
2022-11-13T00:56:14.734Z,101447.28
2022-11-13T01:01:36.876Z,101441.09
2022-11-13T01:06:58.380Z,101431.16
2022-11-13T01:12:21.123Z,101443.72
2022-11-13T01:17:42.587Z,101432.03
2022-11-13T01:23:04.836Z,101440.13
2022-11-13T01:28:27.752Z,101442.75
2022-11-13T01:33:50.507Z,101446.41
2022-11-13T01:39:12.304Z,101441.00
2022-11-13T01:44:50.151Z,101428.56
2022-11-13T01:50:15.507Z,101418.53
2022-11-13T01:55:37.284Z,101410.00
2022-11-13T02:01:02.820Z,101421.19
2022-11-13T02:06:26.541Z,101398.19
2022-11-13T02:11:48.679Z,101397.78
2022-11-13T02:17:16.617Z,101395.50
2022-11-13T02:22:45.944Z,101404.84
2022-11-13T02:28:08.670Z,101403.72
2022-11-13T02:33:33.273Z,101405.28
2022-11-13T02:38:57.058Z,101402.25
2022-11-13T02:44:19.641Z,101396.59
2022-11-13T02:49:41.181Z,101402.94
2022-11-13T02:55:02.732Z,101404.56
2022-11-13T03:00:25.855Z,101396.09
2022-11-13T03:05:49.974Z,101388.44
2022-11-13T03:11:12.676Z,101380.88
2022-11-13T03:16:35.952Z,101388.59
2022-11-13T03:21:57.410Z,101380.78
2022-11-13T03:27:18.850Z,101381.19
2022-11-13T03:32:41.693Z,101380.53
2022-11-13T03:38:03.483Z,101371.16
2022-11-13T03:43:25.077Z,101373.31
2022-11-13T03:48:47.603Z,101365.69
2022-11-13T03:54:09.224Z,101360.72
2022-11-13T03:59:30.776Z,101360.09
2022-11-13T04:04:53.970Z,101357.53
2022-11-13T04:10:15.399Z,101358.81
2022-11-13T04:15:37.008Z,101350.94
2022-11-13T04:21:01.926Z,101352.13
2022-11-13T04:26:23.422Z,101356.00
2022-11-13T04:31:44.896Z,101335.56
2022-11-13T04:37:07.698Z,101336.72
2022-11-13T04:42:46.497Z,101344.13
2022-11-13T04:48:08.196Z,101339.91
2022-11-13T04:53:30.818Z,101323.03
2022-11-13T04:58:52.643Z,101321.44
2022-11-13T05:04:15.166Z,101328.00
2022-11-13T05:09:37.904Z,101320.88
2022-11-13T05:14:59.335Z,101331.88
2022-11-13T05:20:20.944Z,101327.59
2022-11-13T05:25:43.621Z,101328.56
2022-11-13T05:31:07.101Z,101315.34
2022-11-13T05:36:28.559Z,101327.09
2022-11-13T05:41:51.313Z,101327.31
2022-11-13T05:47:12.845Z,101324.00
2022-11-13T05:52:34.443Z,101330.25
2022-11-13T05:57:59.539Z,101319.81
2022-11-13T06:03:20.952Z,101324.38
2022-11-13T06:08:42.892Z,101325.28
2022-11-13T06:14:05.719Z,101320.03
2022-11-13T06:19:27.216Z,101312.28
2022-11-13T06:24:48.839Z,101309.66
2022-11-13T06:30:13.485Z,101316.00
2022-11-13T06:35:35.142Z,101317.00
2022-11-13T06:40:58.054Z,101311.78
2022-11-13T06:46:23.348Z,101299.28
2022-11-13T06:51:44.790Z,101303.84
2022-11-13T06:57:06.313Z,101289.72
2022-11-13T07:02:29.133Z,101302.19
2022-11-13T07:07:50.659Z,101298.78
2022-11-13T07:13:12.141Z,101291.66
2022-11-13T07:18:35.503Z,101292.59
2022-11-13T07:23:56.554Z,101299.94
2022-11-13T07:29:18.051Z,101307.28
2022-11-13T07:34:40.890Z,101299.22
2022-11-13T07:40:02.395Z,101298.41
2022-11-13T07:45:23.709Z,101284.97
2022-11-13T07:50:46.199Z,101286.72
2022-11-13T07:56:08.473Z,101289.56
2022-11-13T08:01:29.919Z,101286.78
2022-11-13T08:06:53.074Z,101279.81
2022-11-13T08:12:14.409Z,101270.88
2022-11-13T08:17:35.785Z,101277.28
2022-11-13T08:23:00.225Z,101279.03
2022-11-13T08:28:21.640Z,101291.59
2022-11-13T08:33:43.953Z,101293.34
2022-11-13T08:39:06.715Z,101293.53
2022-11-13T08:44:27.861Z,101285.16
2022-11-13T08:49:49.360Z,101285.81
2022-11-13T08:55:12.122Z,101276.25
2022-11-13T09:00:33.843Z,101263.75
2022-11-13T09:05:55.138Z,101270.31
2022-11-13T09:11:18.307Z,101271.81
2022-11-13T09:16:39.552Z,101270.66
2022-11-13T09:22:01.135Z,101262.34
2022-11-13T09:27:23.946Z,101261.22
2022-11-13T09:32:45.353Z,101256.59
2022-11-13T09:38:11.478Z,101259.94
2022-11-13T09:43:40.286Z,101266.19
2022-11-13T09:49:05.498Z,101272.34
2022-11-13T09:54:27.147Z,101268.66
2022-11-13T09:59:56.592Z,101273.06
2022-11-13T10:05:24.981Z,101261.38
2022-11-13T10:10:55.582Z,101255.13
2022-11-13T10:16:32.834Z,101237.09
2022-11-13T10:22:19.597Z,101229.00
2022-11-13T10:27:43.599Z,101227.09
2022-11-13T10:33:09.151Z,101225.28
2022-11-13T10:38:36.308Z,101230.56
2022-11-13T10:44:03.782Z,101207.25
2022-11-13T10:49:28.975Z,101201.09
2022-11-13T10:54:51.104Z,101188.63
2022-11-13T11:00:24.148Z,101181.59
2022-11-13T11:06:01.285Z,101174.59
2022-11-13T11:11:40.334Z,101153.84
2022-11-13T11:17:05.313Z,101154.72
2022-11-13T11:22:32.912Z,101159.31
2022-11-13T11:28:01.860Z,101154.00
2022-11-13T11:33:31.627Z,101131.59
2022-11-13T11:39:01.756Z,101121.75
2022-11-13T11:44:30.583Z,101113.47
2022-11-13T11:49:51.851Z,101106.94
2022-11-13T11:55:36.212Z,101107.44
2022-11-13T12:01:05.608Z,101105.63
2022-11-13T12:06:40.970Z,101096.75
2022-11-13T12:12:14.364Z,101104.88
2022-11-13T12:17:49.462Z,101090.19
2022-11-13T12:23:25.851Z,101075.66
2022-11-13T12:28:55.067Z,101074.00
2022-11-13T12:34:26.470Z,101060.22
2022-11-13T12:39:56.840Z,101063.78
2022-11-13T12:45:27.431Z,101062.66
2022-11-13T12:50:59.276Z,101067.81
2022-11-13T12:56:32.573Z,101050.47
2022-11-13T13:02:03.852Z,101045.84
2022-11-13T13:07:48.540Z,101038.66
2022-11-13T13:13:24.260Z,101027.88
2022-11-13T13:18:47.765Z,101010.19
2022-11-13T13:24:11.405Z,100985.44
2022-11-13T13:29:34.844Z,100990.31
2022-11-13T13:35:05.363Z,100969.66
2022-11-13T13:40:37.086Z,100983.34
2022-11-13T13:46:07.272Z,100970.00
2022-11-13T13:51:35.352Z,100970.78
2022-11-13T13:56:59.330Z,100950.09
2022-11-13T14:02:23.124Z,100950.34
2022-11-13T14:07:47.980Z,100943.34
2022-11-13T14:13:13.470Z,100928.50
2022-11-13T14:18:36.274Z,100921.56
2022-11-13T14:24:01.388Z,100918.59
2022-11-13T14:29:33.021Z,100909.16
2022-11-13T14:34:58.441Z,100913.06
2022-11-13T14:40:26.938Z,100907.91
2022-11-13T14:45:57.479Z,100903.66
2022-11-13T14:51:25.292Z,100897.50
2022-11-13T14:56:48.165Z,100890.31
2022-11-13T15:02:12.108Z,100886.75
2022-11-13T15:07:35.310Z,100876.16
2022-11-13T15:12:58.236Z,100872.50
2022-11-13T15:18:20.887Z,100861.84
2022-11-13T15:23:42.468Z,100865.91
2022-11-13T15:29:06.473Z,100855.56
2022-11-13T15:34:28.149Z,100867.97
2022-11-13T15:39:49.477Z,100867.13
2022-11-13T15:45:17.088Z,100861.66
2022-11-13T15:50:38.268Z,100869.72
2022-11-13T15:56:02.991Z,100868.84
2022-11-13T16:01:25.793Z,100860.78
2022-11-13T16:06:47.640Z,100871.63
2022-11-13T16:12:10.737Z,100860.94
2022-11-13T16:17:40.388Z,100847.44
2022-11-13T16:23:01.612Z,100857.34
2022-11-13T16:28:23.284Z,100843.84
2022-11-13T16:33:46.127Z,100840.50
2022-11-13T16:39:13.311Z,100842.50
2022-11-13T16:44:34.841Z,100835.81
2022-11-13T16:49:58.422Z,100837.13
2022-11-13T16:55:19.613Z,100842.16
2022-11-13T17:00:41.210Z,100832.75
2022-11-13T17:06:03.869Z,100839.50
2022-11-13T17:11:26.921Z,100839.09
2022-11-13T17:16:48.402Z,100824.31
2022-11-13T17:22:12.166Z,100822.13
2022-11-13T17:27:33.628Z,100825.13
2022-11-13T17:32:55.199Z,100814.78
2022-11-13T17:38:18.268Z,100810.97
2022-11-13T17:43:41.224Z,100819.63
2022-11-13T17:49:02.501Z,100812.16
2022-11-13T17:54:25.758Z,100819.84
2022-11-13T17:59:47.293Z,100814.84
2022-11-13T18:05:09.869Z,100806.38
2022-11-13T18:10:32.331Z,100809.59
2022-11-13T18:15:54.216Z,100801.28
2022-11-13T18:21:22.792Z,100799.28
2022-11-13T18:26:46.574Z,100798.03
2022-11-13T18:32:07.754Z,100788.78
2022-11-13T18:37:30.280Z,100795.72
2022-11-13T18:42:53.127Z,100800.81
2022-11-13T18:48:14.396Z,100788.09
2022-11-13T18:53:37.565Z,100796.00
2022-11-13T18:59:01.475Z,100803.81
2022-11-13T19:04:23.934Z,100809.88
2022-11-13T19:09:49.950Z,100799.78
2022-11-13T19:15:12.862Z,100797.66
2022-11-13T19:20:34.289Z,100795.72
2022-11-13T19:25:55.781Z,100796.38
2022-11-13T19:31:21.147Z,100788.09
2022-11-13T19:36:45.011Z,100792.53
2022-11-13T19:42:06.909Z,100785.97
2022-11-13T19:47:29.827Z,100781.34
2022-11-13T19:52:51.503Z,100781.06
2022-11-13T19:58:12.984Z,100786.34
2022-11-13T20:03:35.842Z,100776.31
2022-11-13T20:08:58.647Z,100774.28
2022-11-13T20:14:20.089Z,100768.03
2022-11-13T20:19:43.371Z,100763.50
2022-11-13T20:25:04.846Z,100760.78
2022-11-13T20:30:26.010Z,100758.75
2022-11-13T20:35:55.527Z,100746.22
2022-11-13T20:41:17.190Z,100750.56
2022-11-13T20:46:39.067Z,100749.50
2022-11-13T20:52:02.014Z,100746.78
2022-11-13T20:57:23.725Z,100744.97
2022-11-13T21:02:45.221Z,100738.59
2022-11-13T21:08:11.039Z,100736.84
2022-11-13T21:13:32.548Z,100739.25
2022-11-13T21:18:55.376Z,100745.63
2022-11-13T21:24:18.352Z,100740.97
2022-11-13T21:29:39.748Z,100735.69
2022-11-13T21:35:01.291Z,100736.38
2022-11-13T21:40:24.252Z,100740.00
2022-11-13T21:45:45.854Z,100729.22
2022-11-13T21:51:07.500Z,100723.63
2022-11-13T21:56:33.156Z,100718.97
2022-11-13T22:01:54.371Z,100711.66
2022-11-13T22:07:15.939Z,100709.06
2022-11-13T22:12:38.789Z,100702.03
2022-11-13T22:18:00.187Z,100704.84
2022-11-13T22:23:22.813Z,100704.28
2022-11-13T22:28:46.985Z,100693.81
2022-11-13T22:34:09.439Z,100687.84
2022-11-13T22:39:30.737Z,100684.72
2022-11-13T22:44:56.319Z,100684.91
2022-11-13T22:50:18.393Z,100685.25
2022-11-13T22:55:39.762Z,100684.66
2022-11-13T23:01:10.370Z,100676.66
2022-11-13T23:06:33.736Z,100669.78
2022-11-13T23:11:55.730Z,100654.19
2022-11-13T23:17:18.650Z,100649.97
2022-11-13T23:22:40.217Z,100642.13
2022-11-13T23:28:01.488Z,100644.59
2022-11-13T23:33:24.638Z,100633.44
2022-11-13T23:38:46.536Z,100632.22
2022-11-13T23:44:09.635Z,100623.69
2022-11-13T23:49:32.879Z,100610.81
2022-11-13T23:54:54.364Z,100615.81
